createdAt,value
2023-02-03T00:01:46.556Z,7.22
2023-02-03T00:04:13.352Z,7.30
2023-02-03T00:06:40.164Z,7.28
2023-02-03T00:09:06.571Z,7.36
2023-02-03T00:11:32.958Z,7.28
2023-02-03T00:13:59.401Z,7.30
2023-02-03T00:16:25.846Z,7.28
2023-02-03T00:18:52.307Z,7.36
2023-02-03T00:21:18.691Z,7.37
2023-02-03T00:23:45.286Z,7.31
2023-02-03T00:26:14.985Z,7.26
2023-02-03T00:28:41.533Z,7.31
2023-02-03T00:31:15.468Z,7.28
2023-02-03T00:33:41.995Z,7.28
2023-02-03T00:36:09.006Z,7.23
2023-02-03T00:38:35.424Z,7.26
2023-02-03T00:41:01.868Z,7.22
2023-02-03T00:43:28.520Z,7.17
2023-02-03T00:45:55.019Z,7.17
2023-02-03T00:48:21.652Z,7.13
2023-02-03T00:50:48.292Z,7.16
2023-02-03T00:53:15.286Z,7.17
2023-02-03T00:55:43.803Z,7.20
2023-02-03T00:58:10.335Z,7.12
2023-02-03T01:00:36.764Z,7.11
2023-02-03T01:03:03.337Z,7.20
2023-02-03T01:05:29.903Z,7.19
2023-02-03T01:07:56.317Z,7.21
2023-02-03T01:10:22.695Z,7.20
2023-02-03T01:12:49.065Z,7.21
2023-02-03T01:15:15.576Z,7.29
2023-02-03T01:17:41.956Z,7.28
2023-02-03T01:20:12.127Z,7.30
2023-02-03T01:22:38.608Z,7.29
2023-02-03T01:25:05.492Z,7.25
2023-02-03T01:27:33.203Z,7.22
2023-02-03T01:29:59.805Z,7.21
2023-02-03T01:32:26.860Z,7.27
2023-02-03T01:34:53.373Z,7.26
2023-02-03T01:37:20.044Z,7.34
2023-02-03T01:39:46.489Z,7.21
2023-02-03T01:42:13.977Z,7.31
2023-02-03T01:44:47.544Z,7.22
2023-02-03T01:47:17.741Z,7.34
2023-02-03T01:49:53.440Z,7.33
2023-02-03T01:52:19.908Z,7.31
2023-02-03T01:54:50.539Z,7.37
2023-02-03T01:57:21.683Z,7.45
2023-02-03T01:59:48.281Z,7.43
2023-02-03T02:02:15.068Z,7.36
2023-02-03T02:04:50.370Z,7.40
2023-02-03T02:07:17.522Z,7.43
2023-02-03T02:09:45.392Z,7.44
2023-02-03T02:12:12.409Z,7.40
2023-02-03T02:14:40.892Z,7.39
2023-02-03T02:17:21.804Z,7.47
2023-02-03T02:20:07.074Z,7.46
2023-02-03T02:23:04.932Z,7.47
2023-02-03T02:26:10.245Z,7.47
2023-02-03T02:29:14.439Z,7.47
2023-02-03T02:31:51.288Z,7.45
2023-02-03T02:34:43.363Z,7.42
2023-02-03T02:37:31.580Z,7.44
2023-02-03T02:40:00.723Z,7.39
2023-02-03T02:42:34.616Z,7.49
2023-02-03T02:45:26.340Z,7.53
2023-02-03T02:47:59.683Z,7.46
2023-02-03T02:50:31.677Z,7.43
2023-02-03T02:52:58.774Z,7.48
2023-02-03T02:55:30.980Z,7.35
2023-02-03T02:58:02.524Z,7.40
2023-02-03T03:00:34.608Z,7.48
2023-02-03T03:03:20.069Z,7.52
2023-02-03T03:05:52.886Z,7.43
2023-02-03T03:08:25.825Z,7.39
2023-02-03T03:10:53.600Z,7.37
2023-02-03T03:13:24.776Z,7.37
2023-02-03T03:15:53.437Z,7.44
2023-02-03T03:18:23.541Z,7.41
2023-02-03T03:20:51.665Z,7.41
2023-02-03T03:23:27.536Z,7.40
2023-02-03T03:26:03.943Z,7.53
2023-02-03T03:28:48.709Z,7.47
2023-02-03T03:31:18.079Z,7.49
2023-02-03T03:33:46.191Z,7.46
2023-02-03T03:36:22.709Z,7.38
2023-02-03T03:39:00.809Z,7.47
2023-02-03T03:41:38.628Z,7.41
2023-02-03T03:44:10.621Z,7.36
2023-02-03T03:46:45.110Z,7.48
2023-02-03T03:49:12.979Z,7.54
2023-02-03T03:52:03.191Z,7.50
2023-02-03T03:54:31.600Z,7.54
2023-02-03T03:57:10.094Z,7.47
2023-02-03T03:59:41.091Z,7.49
2023-02-03T04:02:07.740Z,7.50
2023-02-03T04:04:37.415Z,7.49
2023-02-03T04:07:03.870Z,7.49
2023-02-03T04:09:30.662Z,7.55
2023-02-03T04:12:03.052Z,7.54
2023-02-03T04:14:31.553Z,7.54
2023-02-03T04:16:58.535Z,7.51
2023-02-03T04:19:25.401Z,7.54
2023-02-03T04:21:52.330Z,7.60
2023-02-03T04:24:18.850Z,7.56
2023-02-03T04:26:45.476Z,7.49
2023-02-03T04:29:11.943Z,7.47
2023-02-03T04:31:38.717Z,7.49
2023-02-03T04:34:05.962Z,7.57
2023-02-03T04:36:32.562Z,7.51
2023-02-03T04:38:59.000Z,7.46
2023-02-03T04:41:25.477Z,7.48
2023-02-03T04:43:52.068Z,7.49
2023-02-03T04:46:18.997Z,7.54
2023-02-03T04:48:45.479Z,7.56
2023-02-03T04:51:12.202Z,7.53
2023-02-03T04:53:38.673Z,7.46
2023-02-03T04:56:05.512Z,7.47
2023-02-03T04:58:32.022Z,7.41
2023-02-03T05:00:58.535Z,7.41
2023-02-03T05:03:26.256Z,7.43
2023-02-03T05:05:56.268Z,7.44
2023-02-03T05:08:22.664Z,7.40
2023-02-03T05:10:49.183Z,7.46
2023-02-03T05:13:15.860Z,7.43
2023-02-03T05:15:42.378Z,7.47
2023-02-03T05:18:08.738Z,7.47
2023-02-03T05:20:35.283Z,7.44
2023-02-03T05:23:01.725Z,7.40
2023-02-03T05:25:28.308Z,7.45
2023-02-03T05:27:54.776Z,7.44
2023-02-03T05:30:21.397Z,7.45
2023-02-03T05:32:49.069Z,7.48
2023-02-03T05:35:15.706Z,7.50
2023-02-03T05:37:45.338Z,7.54
2023-02-03T05:40:31.765Z,7.55
2023-02-03T05:42:58.355Z,7.57
2023-02-03T05:45:24.934Z,7.64
2023-02-03T05:47:51.548Z,7.60
2023-02-03T05:50:18.107Z,7.63
2023-02-03T05:52:44.466Z,7.58
2023-02-03T05:55:11.020Z,7.57
2023-02-03T05:57:37.429Z,7.60
2023-02-03T06:00:04.524Z,7.59
2023-02-03T06:02:31.002Z,7.70
2023-02-03T06:04:57.544Z,7.60
2023-02-03T06:07:24.003Z,7.51
2023-02-03T06:09:50.607Z,7.58
2023-02-03T06:12:16.989Z,7.46
2023-02-03T06:14:43.750Z,7.58
2023-02-03T06:17:10.182Z,7.57
2023-02-03T06:19:36.739Z,7.54
2023-02-03T06:22:03.299Z,7.54
2023-02-03T06:24:29.808Z,7.56
2023-02-03T06:26:56.163Z,7.51
2023-02-03T06:29:22.669Z,7.56
2023-02-03T06:31:49.302Z,7.61
2023-02-03T06:34:15.981Z,7.69
2023-02-03T06:36:42.358Z,7.61
2023-02-03T06:39:08.894Z,7.66
2023-02-03T06:41:35.260Z,7.68
2023-02-03T06:44:01.854Z,7.68
2023-02-03T06:46:30.130Z,7.69
2023-02-03T06:48:56.819Z,7.68
2023-02-03T06:51:24.819Z,7.68
2023-02-03T06:53:51.774Z,7.67
2023-02-03T06:56:18.185Z,7.62
2023-02-03T06:58:45.014Z,7.72
2023-02-03T07:01:11.606Z,7.68
2023-02-03T07:03:38.557Z,7.64
2023-02-03T07:06:05.476Z,7.69
2023-02-03T07:08:32.088Z,7.63
2023-02-03T07:10:58.718Z,7.64
2023-02-03T07:13:25.103Z,7.70
2023-02-03T07:15:53.184Z,7.69
2023-02-03T07:18:45.891Z,7.70
2023-02-03T07:21:10.775Z,7.67
2023-02-03T07:23:37.395Z,7.66
2023-02-03T07:26:05.267Z,7.70
2023-02-03T07:28:33.412Z,7.76
2023-02-03T07:31:00.862Z,7.77
2023-02-03T07:33:28.611Z,7.85
2023-02-03T07:35:57.002Z,7.82
2023-02-03T07:38:24.809Z,7.84
2023-02-03T07:40:51.707Z,7.75
2023-02-03T07:43:18.764Z,7.84
2023-02-03T07:45:45.824Z,7.79
2023-02-03T07:48:12.884Z,7.78
2023-02-03T07:50:40.146Z,7.85
2023-02-03T07:53:09.226Z,7.84
2023-02-03T07:55:39.112Z,7.83
2023-02-03T07:58:06.366Z,7.88
2023-02-03T08:00:33.343Z,7.93
2023-02-03T08:02:59.731Z,7.87
2023-02-03T08:05:26.377Z,7.92
2023-02-03T08:07:52.849Z,7.92
2023-02-03T08:10:19.441Z,7.94
2023-02-03T08:12:47.166Z,7.96
2023-02-03T08:15:14.547Z,7.99
2023-02-03T08:17:41.887Z,8.02
2023-02-03T08:20:10.557Z,8.02
2023-02-03T08:22:37.100Z,8.02
2023-02-03T08:25:03.899Z,7.96
2023-02-03T08:27:31.894Z,8.10
2023-02-03T08:29:58.605Z,7.98
2023-02-03T08:32:25.347Z,7.95
2023-02-03T08:34:52.604Z,7.96
2023-02-03T08:37:22.553Z,7.97
2023-02-03T08:39:48.974Z,7.98
2023-02-03T08:42:15.870Z,7.98
2023-02-03T08:44:44.001Z,8.07
2023-02-03T08:47:11.515Z,8.17
2023-02-03T08:49:42.094Z,8.07
2023-02-03T08:52:11.532Z,8.12
2023-02-03T08:54:39.352Z,8.14
2023-02-03T08:57:06.516Z,8.16
2023-02-03T08:59:36.014Z,8.23
2023-02-03T09:02:07.876Z,8.22
2023-02-03T09:04:35.766Z,8.22
2023-02-03T09:07:04.209Z,8.17
2023-02-03T09:09:31.965Z,8.14
2023-02-03T09:12:02.251Z,8.12
2023-02-03T09:14:29.824Z,8.12
2023-02-03T09:16:56.391Z,8.23
2023-02-03T09:19:23.072Z,8.21
2023-02-03T09:21:49.608Z,8.21
2023-02-03T09:24:17.742Z,8.20
2023-02-03T09:26:44.767Z,8.13
2023-02-03T09:29:11.353Z,8.13
2023-02-03T09:31:37.857Z,8.06
2023-02-03T09:34:04.521Z,8.05
2023-02-03T09:36:31.042Z,7.95
2023-02-03T09:38:58.283Z,7.92
2023-02-03T09:41:48.094Z,7.92
2023-02-03T09:44:36.733Z,7.83
2023-02-03T09:47:12.256Z,7.84
2023-02-03T09:49:42.985Z,7.83
2023-02-03T09:52:23.168Z,7.81
2023-02-03T09:55:26.425Z,7.78
2023-02-03T09:58:06.102Z,7.75
2023-02-03T10:00:54.185Z,7.72
2023-02-03T10:03:52.412Z,7.78
2023-02-03T10:06:37.259Z,7.85
2023-02-03T10:09:09.719Z,7.92
2023-02-03T10:11:52.428Z,7.93
2023-02-03T10:14:47.571Z,7.96
2023-02-03T10:17:17.009Z,8.02
2023-02-03T10:19:49.760Z,8.02
2023-02-03T10:22:21.767Z,8.11
2023-02-03T10:25:08.443Z,8.08
2023-02-03T10:27:37.152Z,8.07
2023-02-03T10:30:15.835Z,8.07
2023-02-03T10:32:42.396Z,8.15
2023-02-03T10:35:15.373Z,8.13
2023-02-03T10:37:45.429Z,8.17
2023-02-03T10:40:14.725Z,8.18
2023-02-03T10:43:01.979Z,8.17
2023-02-03T10:45:30.975Z,8.24
2023-02-03T10:47:58.930Z,8.19
2023-02-03T10:50:31.641Z,8.20
2023-02-03T10:53:20.000Z,8.16
2023-02-03T10:55:50.885Z,8.15
2023-02-03T10:58:29.178Z,8.23
2023-02-03T11:01:05.186Z,8.22
2023-02-03T11:03:31.782Z,8.25
2023-02-03T11:06:16.009Z,8.27
2023-02-03T11:08:45.620Z,8.30
2023-02-03T11:11:32.336Z,8.33
2023-02-03T11:14:04.913Z,8.32
2023-02-03T11:16:34.949Z,8.33
2023-02-03T11:19:18.456Z,8.39
2023-02-03T11:21:51.607Z,8.47
2023-02-03T11:24:20.212Z,8.49
2023-02-03T11:26:55.028Z,8.47
2023-02-03T11:29:31.386Z,8.53
2023-02-03T11:32:01.663Z,8.55
2023-02-03T11:34:34.551Z,8.63
2023-02-03T11:37:32.455Z,8.65
2023-02-03T11:40:08.124Z,8.69
2023-02-03T11:42:37.040Z,8.74
2023-02-03T11:45:31.031Z,8.74
2023-02-03T11:48:02.669Z,8.70
2023-02-03T11:50:38.355Z,8.69
2023-02-03T11:53:25.439Z,8.67
2023-02-03T11:56:29.218Z,8.60
2023-02-03T11:59:25.218Z,8.60
2023-02-03T12:02:10.211Z,8.57
2023-02-03T12:05:17.180Z,8.51
2023-02-03T12:08:14.453Z,8.47
2023-02-03T12:11:04.925Z,8.47
2023-02-03T12:13:59.432Z,8.49
2023-02-03T12:16:42.268Z,8.45
2023-02-03T12:19:30.165Z,8.45
2023-02-03T12:22:10.045Z,8.42
2023-02-03T12:24:58.066Z,8.44
2023-02-03T12:27:38.594Z,8.42
2023-02-03T12:30:22.260Z,8.39
2023-02-03T12:32:54.912Z,8.43
2023-02-03T12:35:33.235Z,8.38
2023-02-03T12:38:07.412Z,8.39
2023-02-03T12:40:48.211Z,8.36
2023-02-03T12:43:39.482Z,8.39
2023-02-03T12:46:18.164Z,8.37
2023-02-03T12:49:02.895Z,8.37
2023-02-03T12:51:41.311Z,8.34
2023-02-03T12:54:49.779Z,8.29
2023-02-03T12:57:34.023Z,8.32
2023-02-03T13:00:33.103Z,8.33
2023-02-03T13:03:24.960Z,8.35
2023-02-03T13:06:14.810Z,8.34
2023-02-03T13:08:53.662Z,8.30
2023-02-03T13:11:36.697Z,8.34
2023-02-03T13:14:27.609Z,8.34
2023-02-03T13:17:00.348Z,8.33
2023-02-03T13:19:45.070Z,8.38
2023-02-03T13:22:13.683Z,8.37
2023-02-03T13:24:46.030Z,8.37
2023-02-03T13:27:18.427Z,8.41
2023-02-03T13:30:18.756Z,8.42
2023-02-03T13:33:09.538Z,8.36
2023-02-03T13:35:54.618Z,8.43
2023-02-03T13:38:39.435Z,8.37
2023-02-03T13:41:22.859Z,8.37
2023-02-03T13:43:53.103Z,8.36
2023-02-03T13:46:40.331Z,8.29
2023-02-03T13:49:08.746Z,8.27
2023-02-03T13:51:46.019Z,8.23
2023-02-03T13:54:28.427Z,8.20
2023-02-03T13:57:02.110Z,8.21
2023-02-03T13:59:37.664Z,8.19
2023-02-03T14:02:19.454Z,8.12
2023-02-03T14:04:46.058Z,8.15
2023-02-03T14:07:36.562Z,8.10
2023-02-03T14:10:17.916Z,8.06
2023-02-03T14:12:50.389Z,8.05
2023-02-03T14:15:32.632Z,8.03
2023-02-03T14:18:25.371Z,8.06
2023-02-03T14:20:56.202Z,8.01
2023-02-03T14:23:26.995Z,8.02
2023-02-03T14:25:59.315Z,7.99
2023-02-03T14:28:37.808Z,7.97
2023-02-03T14:31:52.144Z,7.98
2023-02-03T14:34:19.286Z,7.98
2023-02-03T14:36:55.166Z,8.00
2023-02-03T14:39:27.775Z,8.01
2023-02-03T14:42:20.109Z,7.99
2023-02-03T14:45:05.326Z,7.97
2023-02-03T14:47:35.239Z,7.98
2023-02-03T14:50:13.630Z,7.97
2023-02-03T14:53:18.858Z,8.02
2023-02-03T14:55:45.895Z,7.99
2023-02-03T14:58:36.121Z,7.93
2023-02-03T15:01:07.141Z,7.95
2023-02-03T15:03:35.048Z,7.94
2023-02-03T15:06:05.217Z,7.99
2023-02-03T15:08:42.077Z,7.96
2023-02-03T15:11:27.529Z,7.99
2023-02-03T15:13:56.359Z,7.96
2023-02-03T15:16:25.185Z,7.93
2023-02-03T15:18:58.246Z,7.96
2023-02-03T15:21:25.219Z,7.94
2023-02-03T15:23:53.027Z,7.98
2023-02-03T15:26:25.017Z,8.00
2023-02-03T15:28:59.915Z,8.01
2023-02-03T15:31:33.803Z,8.01
2023-02-03T15:34:09.651Z,8.01
2023-02-03T15:36:48.111Z,8.01
2023-02-03T15:39:29.575Z,8.02
2023-02-03T15:41:58.153Z,8.00
2023-02-03T15:44:34.443Z,8.01
2023-02-03T15:47:04.609Z,7.99
2023-02-03T15:49:39.951Z,8.03
2023-02-03T15:52:23.280Z,8.04
2023-02-03T15:54:54.605Z,8.04
2023-02-03T15:57:28.140Z,8.03
2023-02-03T16:00:09.629Z,8.02
2023-02-03T16:02:45.826Z,8.04
2023-02-03T16:05:20.628Z,8.04
2023-02-03T16:07:47.157Z,8.04
2023-02-03T16:10:30.350Z,8.08
2023-02-03T16:13:19.771Z,8.03
2023-02-03T16:16:12.792Z,8.04
2023-02-03T16:18:39.800Z,8.04
2023-02-03T16:21:06.527Z,8.07
2023-02-03T16:23:33.205Z,8.07
2023-02-03T16:26:30.190Z,8.03
2023-02-03T16:29:27.593Z,8.03
2023-02-03T16:32:13.621Z,8.03
2023-02-03T16:34:59.367Z,8.03
2023-02-03T16:37:50.850Z,8.07
2023-02-03T16:40:39.320Z,8.05
2023-02-03T16:43:30.507Z,7.89
2023-02-03T16:46:17.047Z,7.80
2023-02-03T16:49:02.300Z,7.73
2023-02-03T16:51:39.895Z,7.74
2023-02-03T16:54:09.877Z,7.73
2023-02-03T16:56:36.309Z,7.67
2023-02-03T16:59:02.855Z,7.72
2023-02-03T17:01:29.584Z,7.61
2023-02-03T17:03:56.124Z,7.66
2023-02-03T17:06:22.703Z,7.63
2023-02-03T17:08:49.095Z,7.59
2023-02-03T17:11:20.047Z,7.62
2023-02-03T17:13:47.631Z,7.63
2023-02-03T17:16:22.877Z,7.60
2023-02-03T17:18:49.531Z,7.59
2023-02-03T17:21:21.468Z,7.59
2023-02-03T17:23:48.137Z,7.57
2023-02-03T17:26:14.807Z,7.61
2023-02-03T17:28:43.112Z,7.51
2023-02-03T17:31:18.543Z,7.52
2023-02-03T17:33:46.268Z,7.51
2023-02-03T17:36:19.566Z,7.51
2023-02-03T17:55:33.205Z,7.50
2023-02-03T17:58:00.402Z,7.53
2023-02-03T18:00:26.821Z,7.55
2023-02-03T18:02:53.240Z,7.50
2023-02-03T18:05:19.766Z,7.49
2023-02-03T18:10:12.894Z,7.48
2023-02-03T18:12:39.358Z,7.45
2023-02-03T18:15:06.242Z,7.47
2023-02-03T18:17:32.719Z,7.48
2023-02-03T18:20:01.170Z,7.46
2023-02-03T18:22:27.756Z,7.46
2023-02-03T18:24:55.513Z,7.45
2023-02-03T18:27:21.930Z,7.40
2023-02-03T18:29:48.663Z,7.45
2023-02-03T18:32:16.422Z,7.34
2023-02-03T18:34:43.110Z,7.32
2023-02-03T18:37:09.660Z,7.39
2023-02-03T18:39:36.395Z,7.36
2023-02-03T18:42:03.622Z,7.33
2023-02-03T18:44:31.556Z,7.26
2023-02-03T18:47:06.472Z,7.24
2023-02-03T18:49:35.360Z,7.17
2023-02-03T18:52:02.209Z,7.22
2023-02-03T18:54:29.589Z,7.15
2023-02-03T18:56:58.870Z,7.14
2023-02-03T18:59:25.781Z,7.18
2023-02-03T19:01:52.380Z,7.13
2023-02-03T19:04:18.854Z,7.14
2023-02-03T19:06:45.626Z,7.19
2023-02-03T19:09:16.057Z,7.13
2023-02-03T19:11:43.092Z,7.28
2023-02-03T19:14:09.860Z,7.15
2023-02-03T19:16:36.513Z,7.13
2023-02-03T19:19:02.892Z,7.18
2023-02-03T19:21:29.291Z,7.19
2023-02-03T19:23:55.779Z,7.16
2023-02-03T19:26:22.289Z,7.16
2023-02-03T19:28:48.861Z,7.09
2023-02-03T19:31:15.746Z,7.06
2023-02-03T19:33:42.862Z,7.11
2023-02-03T19:36:10.295Z,7.08
2023-02-03T19:38:36.944Z,7.05
2023-02-03T19:41:04.211Z,7.06
2023-02-03T19:43:31.429Z,7.03
2023-02-03T19:45:59.552Z,7.08
2023-02-03T19:48:26.091Z,7.08
2023-02-03T19:50:52.538Z,7.13
2023-02-03T19:53:19.036Z,7.13
2023-02-03T19:55:46.560Z,7.21
2023-02-03T19:58:14.265Z,7.11
2023-02-03T20:00:42.086Z,7.11
2023-02-03T20:03:09.140Z,7.08
2023-02-03T20:05:36.261Z,7.14
2023-02-03T20:08:03.863Z,7.08
2023-02-03T20:10:32.546Z,7.09
2023-02-03T20:12:59.524Z,7.12
2023-02-03T20:15:26.789Z,7.11
2023-02-03T20:17:53.544Z,7.10
2023-02-03T20:20:20.916Z,7.19
2023-02-03T20:22:48.436Z,7.18
2023-02-03T20:25:15.129Z,7.07
2023-02-03T20:27:41.826Z,7.21
2023-02-03T20:30:08.995Z,7.24
2023-02-03T20:32:36.100Z,7.25
2023-02-03T20:35:04.368Z,7.21
2023-02-03T20:37:31.062Z,7.28
2023-02-03T20:39:57.986Z,7.29
2023-02-03T20:42:24.682Z,7.30
2023-02-03T20:44:51.264Z,7.29
2023-02-03T20:47:22.791Z,7.32
2023-02-03T20:49:49.777Z,7.31
2023-02-03T20:52:19.676Z,7.32
2023-02-03T20:54:46.381Z,7.34
2023-02-03T20:57:17.823Z,7.32
2023-02-03T20:59:45.824Z,7.34
2023-02-03T21:02:22.825Z,7.28
2023-02-03T21:04:58.363Z,7.30
2023-02-03T21:07:30.608Z,7.35
2023-02-03T21:09:58.679Z,7.36
2023-02-03T21:12:25.159Z,7.32
2023-02-03T21:14:53.689Z,7.33
2023-02-03T21:17:25.595Z,7.33
2023-02-03T21:19:53.741Z,7.35
2023-02-03T21:22:26.889Z,7.36
2023-02-03T21:25:00.475Z,7.35
2023-02-03T21:27:31.919Z,7.35
2023-02-03T21:30:00.884Z,7.36
2023-02-03T21:32:47.668Z,7.40
2023-02-03T21:35:33.849Z,7.33
2023-02-03T21:38:02.764Z,7.40
2023-02-03T21:40:33.747Z,7.37
2023-02-03T21:43:02.999Z,7.34
2023-02-03T21:45:42.911Z,7.28
2023-02-03T21:48:25.207Z,7.34
2023-02-03T21:50:53.087Z,7.31
2023-02-03T21:53:33.470Z,7.28
2023-02-03T21:56:41.321Z,7.31
2023-02-03T21:59:21.170Z,7.24
2023-02-03T22:01:48.404Z,7.20
2023-02-03T22:04:15.263Z,7.21
2023-02-03T22:06:49.792Z,7.21
2023-02-03T22:09:21.164Z,7.14
2023-02-03T22:11:48.280Z,7.19
2023-02-03T22:14:16.805Z,7.10
2023-02-03T22:16:44.260Z,7.14
2023-02-03T22:19:11.032Z,7.16
2023-02-03T22:21:37.634Z,7.05
2023-02-03T22:24:04.646Z,7.09
2023-02-03T22:26:31.301Z,7.10
2023-02-03T22:28:57.931Z,7.03
2023-02-03T22:31:24.503Z,6.99
2023-02-03T22:33:51.129Z,6.95
2023-02-03T22:36:17.622Z,6.92
2023-02-03T22:38:44.044Z,6.91
2023-02-03T22:41:14.506Z,6.91
2023-02-03T22:43:41.388Z,6.96
2023-02-03T22:46:08.587Z,6.96
2023-02-03T22:48:35.268Z,6.88
2023-02-03T22:51:01.796Z,6.89
2023-02-03T22:53:28.791Z,6.79
2023-02-03T22:55:55.741Z,6.71
2023-02-03T22:58:22.666Z,6.70
2023-02-03T23:00:49.106Z,6.69
2023-02-03T23:03:15.537Z,6.71
2023-02-03T23:05:42.331Z,6.67
2023-02-03T23:08:09.583Z,6.72
2023-02-03T23:10:37.357Z,6.72
2023-02-03T23:13:03.994Z,6.70
2023-02-03T23:15:30.663Z,6.70
2023-02-03T23:17:57.155Z,6.70
2023-02-03T23:20:24.314Z,6.71
2023-02-03T23:22:50.724Z,6.74
2023-02-03T23:25:17.561Z,6.78
2023-02-03T23:27:44.115Z,6.69
2023-02-03T23:30:11.726Z,6.75
2023-02-03T23:32:38.182Z,6.75
2023-02-03T23:35:23.880Z,6.75
2023-02-03T23:37:50.300Z,6.71
2023-02-03T23:40:17.060Z,6.66
2023-02-03T23:42:45.712Z,6.80
2023-02-03T23:45:12.629Z,6.74
2023-02-03T23:47:40.610Z,6.82
2023-02-03T23:50:09.134Z,6.71
2023-02-03T23:52:35.990Z,6.80
2023-02-03T23:55:14.176Z,6.80
2023-02-03T23:57:42.592Z,6.71
